createdAt,value
2023-11-12T00:00:26.000Z,98.39
2023-11-12T00:03:14.817Z,99.14
2023-11-12T00:05:43.342Z,99.25
2023-11-12T00:08:11.378Z,98.93
2023-11-12T00:10:40.717Z,98.23
2023-11-12T00:13:08.929Z,98.25
2023-11-12T00:15:38.901Z,98.48
2023-11-12T00:18:06.933Z,97.99
2023-11-12T00:20:35.767Z,97.52
2023-11-12T00:23:03.816Z,97.27
2023-11-12T00:25:32.086Z,96.16
2023-11-12T00:28:00.209Z,95.83
2023-11-12T00:30:28.558Z,97.14
2023-11-12T00:32:58.047Z,97.00
2023-11-12T00:35:26.490Z,98.24
2023-11-12T00:37:54.722Z,98.38
2023-11-12T00:40:23.757Z,99.27
2023-11-12T00:42:51.752Z,99.27
2023-11-12T00:45:20.056Z,99.47
2023-11-12T00:47:48.315Z,99.57
2023-11-12T00:50:19.129Z,100.00
2023-11-12T00:52:47.135Z,99.30
2023-11-12T00:55:15.803Z,99.31
2023-11-12T00:57:44.526Z,100.00
2023-11-12T01:00:14.876Z,100.00
2023-11-12T01:02:43.307Z,100.00
2023-11-12T01:05:12.170Z,100.00
2023-11-12T01:07:41.665Z,100.00
2023-11-12T01:10:10.632Z,100.00
2023-11-12T01:12:38.925Z,100.00
2023-11-12T01:15:07.980Z,100.00
2023-11-12T01:17:36.405Z,100.00
2023-11-12T01:20:07.814Z,100.00
2023-11-12T01:22:36.080Z,99.99
2023-11-12T01:25:06.441Z,100.00
2023-11-12T01:27:34.676Z,100.00
2023-11-12T01:30:04.338Z,100.00
2023-11-12T01:32:32.399Z,99.78
2023-11-12T01:35:01.085Z,99.96
2023-11-12T01:37:29.345Z,99.98
2023-11-12T01:39:57.702Z,100.00
2023-11-12T01:42:27.085Z,100.00
2023-11-12T01:44:55.337Z,99.28
2023-11-12T01:47:23.822Z,97.39
2023-11-12T01:49:52.410Z,97.82
2023-11-12T01:52:20.480Z,99.76
2023-11-12T01:54:48.791Z,99.86
2023-11-12T01:57:17.197Z,98.97
2023-11-12T01:59:47.144Z,98.28
2023-11-12T02:02:15.666Z,98.55
2023-11-12T02:04:44.194Z,99.35
2023-11-12T02:07:14.433Z,99.88
2023-11-12T02:09:42.792Z,100.00
2023-11-12T02:12:10.881Z,100.00
2023-11-12T02:14:39.313Z,100.00
2023-11-12T02:17:08.875Z,100.00
2023-11-12T02:19:37.238Z,100.00
2023-11-12T02:22:05.261Z,100.00
2023-11-12T02:24:35.231Z,100.00
2023-11-12T02:27:03.302Z,100.00
2023-11-12T02:29:32.129Z,100.00
2023-11-12T02:32:00.729Z,100.00
2023-11-12T02:34:29.027Z,100.00
2023-11-12T02:36:57.005Z,100.00
2023-11-12T02:39:25.289Z,100.00
2023-11-12T02:41:56.396Z,100.00
2023-11-12T02:44:24.735Z,100.00
2023-11-12T02:46:52.687Z,100.00
2023-11-12T02:49:39.068Z,100.00
2023-11-12T02:52:08.088Z,100.00
2023-11-12T02:54:36.673Z,100.00
2023-11-12T02:57:06.206Z,100.00
2023-11-12T02:59:34.991Z,100.00
2023-11-12T03:02:03.071Z,100.00
2023-11-12T03:04:34.472Z,100.00
2023-11-12T03:07:02.471Z,100.00
2023-11-12T03:09:31.634Z,100.00
2023-11-12T03:12:09.180Z,100.00
2023-11-12T03:14:39.236Z,100.00
2023-11-12T03:17:07.632Z,100.00
2023-11-12T03:19:36.680Z,100.00
2023-11-12T03:22:04.818Z,99.96
2023-11-12T03:24:33.508Z,99.67
2023-11-12T03:27:01.559Z,99.41
2023-11-12T03:29:29.875Z,99.16
2023-11-12T03:31:59.223Z,98.77
2023-11-12T03:34:27.580Z,98.38
2023-11-12T03:36:55.878Z,98.45
2023-11-12T03:39:24.610Z,98.86
2023-11-12T03:41:53.367Z,98.35
2023-11-12T03:44:21.645Z,98.18
2023-11-12T03:46:49.757Z,97.86
2023-11-12T03:49:19.557Z,97.60
2023-11-12T03:51:48.480Z,97.89
2023-11-12T03:54:17.848Z,98.31
2023-11-12T03:56:45.965Z,97.59
2023-11-12T03:59:14.320Z,97.07
2023-11-12T04:01:42.413Z,97.36
2023-11-12T04:04:10.767Z,97.58
2023-11-12T04:06:40.197Z,97.41
2023-11-12T04:09:10.044Z,97.30
2023-11-12T04:11:40.056Z,97.26
2023-11-12T04:14:08.733Z,97.14
2023-11-12T04:16:37.028Z,97.71
2023-11-12T04:19:08.874Z,97.63
2023-11-12T04:21:37.186Z,97.18
2023-11-12T04:24:08.384Z,97.27
2023-11-12T04:26:36.542Z,96.99
2023-11-12T04:29:08.594Z,97.17
2023-11-12T04:31:37.586Z,97.84
2023-11-12T04:34:06.457Z,97.68
2023-11-12T04:36:36.608Z,98.21
2023-11-12T04:39:08.919Z,98.09
2023-11-12T04:41:37.413Z,98.43
2023-11-12T04:44:06.689Z,98.46
2023-11-12T04:46:35.106Z,98.35
2023-11-12T04:49:04.002Z,98.10
2023-11-12T04:51:33.417Z,99.06
2023-11-12T04:54:01.941Z,99.38
2023-11-12T04:56:31.355Z,98.80
2023-11-12T04:58:59.686Z,97.82
2023-11-12T05:01:28.283Z,98.08
2023-11-12T05:03:56.686Z,97.95
2023-11-12T05:06:29.777Z,98.22
2023-11-12T05:08:58.424Z,97.93
2023-11-12T05:11:27.673Z,97.91
2023-11-12T05:13:57.860Z,98.14
2023-11-12T05:16:26.523Z,98.94
2023-11-12T05:18:55.292Z,98.18
2023-11-12T05:21:23.585Z,98.14
2023-11-12T05:23:51.899Z,97.79
2023-11-12T05:26:20.128Z,97.57
2023-11-12T05:28:48.516Z,98.15
2023-11-12T05:31:18.022Z,98.65
2023-11-12T05:33:46.392Z,98.68
2023-11-12T05:36:14.818Z,97.77
2023-11-12T05:38:43.629Z,97.47
2023-11-12T05:41:11.617Z,96.89
2023-11-12T05:43:40.116Z,96.68
2023-11-12T05:46:08.242Z,96.79
2023-11-12T05:48:38.346Z,96.92
2023-11-12T05:51:07.113Z,96.79
2023-11-12T05:53:35.632Z,96.58
2023-11-12T05:56:05.111Z,96.55
2023-11-12T05:58:33.428Z,96.68
2023-11-12T06:01:01.390Z,97.21
2023-11-12T06:03:30.975Z,97.68
2023-11-12T06:06:00.466Z,97.56
2023-11-12T06:08:28.966Z,97.55
2023-11-12T06:10:57.939Z,97.64
2023-11-12T06:13:26.454Z,98.32
2023-11-12T06:15:54.460Z,98.80
2023-11-12T06:18:22.803Z,99.27
2023-11-12T06:20:51.207Z,99.59
2023-11-12T06:23:20.884Z,99.22
2023-11-12T06:25:48.922Z,98.98
2023-11-12T06:28:18.097Z,98.92
2023-11-12T06:30:46.200Z,98.52
2023-11-12T06:33:14.626Z,98.26
2023-11-12T06:35:42.827Z,98.12
2023-11-12T06:38:11.072Z,97.09
2023-11-12T06:40:40.401Z,97.04
2023-11-12T06:43:08.700Z,96.55
2023-11-12T06:45:36.802Z,96.67
2023-11-12T06:48:05.311Z,97.17
2023-11-12T06:50:33.340Z,97.56
2023-11-12T06:53:01.602Z,97.55
2023-11-12T06:55:31.073Z,97.33
2023-11-12T06:58:00.767Z,97.33
2023-11-12T07:00:28.781Z,96.96
2023-11-12T07:02:57.488Z,96.17
2023-11-12T07:05:27.476Z,95.90
2023-11-12T07:07:56.050Z,95.10
2023-11-12T07:10:24.420Z,94.88
2023-11-12T07:12:52.694Z,94.45
2023-11-12T07:15:22.160Z,94.06
2023-11-12T07:17:51.003Z,93.65
2023-11-12T07:20:19.898Z,93.34
2023-11-12T07:22:48.474Z,93.20
2023-11-12T07:25:16.484Z,93.39
2023-11-12T07:27:45.890Z,92.96
2023-11-12T07:30:14.183Z,92.87
2023-11-12T07:32:44.205Z,92.59
2023-11-12T07:35:14.392Z,92.24
2023-11-12T07:37:43.393Z,92.06
2023-11-12T07:40:13.032Z,91.86
2023-11-12T07:42:42.079Z,91.62
2023-11-12T07:45:13.998Z,91.31
2023-11-12T07:47:45.599Z,90.92
2023-11-12T07:50:14.352Z,90.71
2023-11-12T07:52:43.085Z,90.53
2023-11-12T07:55:11.248Z,90.45
2023-11-12T07:57:39.564Z,90.17
2023-11-12T08:00:08.634Z,89.78
2023-11-12T08:02:38.275Z,89.88
2023-11-12T08:05:09.691Z,89.58
2023-11-12T08:07:38.120Z,89.29
2023-11-12T08:10:06.981Z,89.09
2023-11-12T08:12:35.525Z,88.87
2023-11-12T08:15:06.306Z,88.50
2023-11-12T08:17:34.690Z,88.54
2023-11-12T08:20:03.403Z,87.99
2023-11-12T08:22:33.059Z,87.78
2023-11-12T08:25:01.049Z,87.36
2023-11-12T08:27:30.256Z,87.28
2023-11-12T08:29:58.216Z,86.92
2023-11-12T08:32:26.680Z,86.40
2023-11-12T08:34:54.659Z,86.42
2023-11-12T08:37:22.999Z,85.61
2023-11-12T08:39:52.471Z,85.59
2023-11-12T08:42:20.978Z,85.32
2023-11-12T08:44:49.020Z,86.01
2023-11-12T08:47:17.375Z,85.58
2023-11-12T08:49:45.393Z,85.01
2023-11-12T08:52:16.173Z,84.68
2023-11-12T08:54:44.269Z,84.38
2023-11-12T08:57:14.036Z,83.91
2023-11-12T08:59:42.130Z,83.47
2023-11-12T09:02:10.610Z,83.65
2023-11-12T09:04:39.413Z,82.81
2023-11-12T09:07:08.461Z,82.56
2023-11-12T09:09:36.777Z,82.34
2023-11-12T09:12:05.331Z,81.78
2023-11-12T09:14:35.004Z,81.50
2023-11-12T09:17:03.660Z,80.68
2023-11-12T09:19:32.000Z,80.41
2023-11-12T09:22:00.245Z,79.86
2023-11-12T09:24:29.000Z,79.64
2023-11-12T09:26:57.565Z,79.63
2023-11-12T09:29:25.849Z,78.85
2023-11-12T09:31:55.831Z,79.11
2023-11-12T09:34:24.149Z,78.50
2023-11-12T09:36:53.069Z,78.34
2023-11-12T09:39:23.626Z,78.57
2023-11-12T09:41:53.682Z,78.05
2023-11-12T09:44:23.834Z,77.88
2023-11-12T09:47:00.672Z,77.29
2023-11-12T09:49:31.333Z,77.68
2023-11-12T09:51:59.591Z,78.01
2023-11-12T09:54:28.016Z,77.31
2023-11-12T09:57:06.365Z,77.50
2023-11-12T09:59:38.269Z,77.54
2023-11-12T10:02:07.758Z,77.25
2023-11-12T10:04:37.489Z,76.63
2023-11-12T10:07:06.650Z,76.55
2023-11-12T10:09:38.073Z,76.64
2023-11-12T10:12:07.100Z,76.64
2023-11-12T10:14:36.131Z,76.93
2023-11-12T10:17:08.456Z,76.27
2023-11-12T10:19:38.880Z,76.11
2023-11-12T10:22:08.368Z,76.13
2023-11-12T10:24:44.283Z,75.28
2023-11-12T10:27:15.462Z,75.58
2023-11-12T10:29:45.886Z,74.93
2023-11-12T10:32:26.010Z,75.07
2023-11-12T10:34:56.736Z,75.16
2023-11-12T10:37:25.185Z,74.98
2023-11-12T10:39:53.731Z,74.36
2023-11-12T10:42:24.836Z,74.38
2023-11-12T10:44:56.031Z,74.34
2023-11-12T10:47:25.151Z,74.54
2023-11-12T10:49:53.685Z,74.17
2023-11-12T10:52:24.255Z,74.14
2023-11-12T10:54:52.724Z,73.17
2023-11-12T10:57:21.783Z,73.74
2023-11-12T10:59:50.801Z,74.05
2023-11-12T11:02:19.970Z,74.39
2023-11-12T11:04:48.889Z,74.62
2023-11-12T11:07:17.707Z,74.66
2023-11-12T11:09:48.957Z,74.36
2023-11-12T11:12:18.089Z,74.33
2023-11-12T11:14:47.977Z,75.22
2023-11-12T11:17:31.485Z,75.69
2023-11-12T11:19:59.561Z,76.02
2023-11-12T11:22:28.909Z,76.46
2023-11-12T11:24:59.111Z,76.99
2023-11-12T11:27:29.622Z,77.26
2023-11-12T11:30:07.485Z,77.40
2023-11-12T11:32:36.259Z,77.32
2023-11-12T11:35:08.293Z,77.66
2023-11-12T11:37:55.333Z,77.50
2023-11-12T11:40:31.517Z,77.28
2023-11-12T11:43:19.627Z,77.94
2023-11-12T11:46:06.111Z,77.58
2023-11-12T11:48:34.704Z,77.05
2023-11-12T11:51:05.398Z,76.37
2023-11-12T11:53:34.245Z,75.79
2023-11-12T11:56:06.012Z,75.39
2023-11-12T11:58:41.650Z,75.33
2023-11-12T12:01:10.170Z,75.18
2023-11-12T12:03:38.489Z,75.27
2023-11-12T12:06:16.285Z,75.09
2023-11-12T12:08:51.461Z,74.86
2023-11-12T12:11:23.437Z,74.69
2023-11-12T12:13:58.220Z,74.44
2023-11-12T12:16:29.524Z,74.62
2023-11-12T12:18:58.155Z,73.60
2023-11-12T12:21:26.399Z,72.86
2023-11-12T12:23:55.350Z,73.02
2023-11-12T12:26:28.425Z,72.95
2023-11-12T12:28:57.238Z,72.00
2023-11-12T12:31:28.991Z,72.39
2023-11-12T12:34:01.232Z,71.09
2023-11-12T12:36:29.625Z,70.80
2023-11-12T12:38:58.875Z,70.69
2023-11-12T12:41:28.880Z,70.78
2023-11-12T12:43:57.835Z,70.72
2023-11-12T12:46:26.765Z,70.54
2023-11-12T12:48:56.466Z,70.10
2023-11-12T12:51:24.774Z,70.56
2023-11-12T12:53:54.018Z,70.93
2023-11-12T12:56:22.777Z,70.36
2023-11-12T12:58:56.904Z,69.53
2023-11-12T13:01:25.781Z,68.88
2023-11-12T13:03:54.186Z,68.93
2023-11-12T13:06:23.422Z,69.09
2023-11-12T13:08:52.297Z,68.91
2023-11-12T13:11:20.660Z,68.41
2023-11-12T13:13:50.607Z,68.20
2023-11-12T13:16:20.956Z,68.51
2023-11-12T13:18:49.672Z,68.26
2023-11-12T13:21:20.002Z,68.37
2023-11-12T13:23:48.265Z,69.02
2023-11-12T13:26:17.141Z,69.25
2023-11-12T13:28:45.667Z,68.57
2023-11-12T13:31:16.241Z,69.10
2023-11-12T13:33:49.644Z,69.06
2023-11-12T13:36:18.063Z,68.59
2023-11-12T13:38:46.550Z,68.95
2023-11-12T13:41:16.829Z,69.37
2023-11-12T13:43:45.492Z,69.48
2023-11-12T13:46:14.324Z,69.42
2023-11-12T13:48:42.982Z,69.91
2023-11-12T13:51:13.150Z,70.21
2023-11-12T13:53:42.765Z,70.21
2023-11-12T13:56:14.003Z,70.07
2023-11-12T13:58:44.122Z,69.86
2023-11-12T14:01:13.314Z,69.73
2023-11-12T14:03:42.262Z,69.58
2023-11-12T14:06:10.456Z,69.31
2023-11-12T14:08:42.821Z,70.01
2023-11-12T14:11:13.199Z,70.14
2023-11-12T14:13:44.962Z,70.62
2023-11-12T14:16:16.217Z,70.97
2023-11-12T14:18:45.910Z,71.38
2023-11-12T14:21:14.610Z,71.36
2023-11-12T14:23:44.787Z,71.64
2023-11-12T14:26:14.223Z,71.53
2023-11-12T14:28:42.586Z,71.77
2023-11-12T14:31:12.103Z,72.06
2023-11-12T14:33:42.720Z,72.61
2023-11-12T14:36:13.964Z,72.67
2023-11-12T14:38:42.278Z,72.98
2023-11-12T14:41:12.226Z,73.28
2023-11-12T14:43:41.260Z,73.20
2023-11-12T14:46:09.583Z,73.02
2023-11-12T14:48:38.950Z,72.97
2023-11-12T14:51:09.131Z,73.28
2023-11-12T14:53:37.395Z,73.51
2023-11-12T14:56:07.216Z,73.62
2023-11-12T14:58:38.217Z,74.04
2023-11-12T15:01:06.928Z,74.28
2023-11-12T15:03:35.431Z,74.67
2023-11-12T15:06:03.667Z,74.67
2023-11-12T15:08:34.514Z,74.59
2023-11-12T15:11:02.735Z,74.61
2023-11-12T15:13:33.829Z,74.82
2023-11-12T15:16:04.703Z,74.72
2023-11-12T15:18:33.137Z,74.53
2023-11-12T15:21:03.551Z,74.50
2023-11-12T15:23:32.969Z,74.84
2023-11-12T15:26:01.156Z,74.87
2023-11-12T15:28:30.189Z,74.52
2023-11-12T15:30:58.535Z,74.97
2023-11-12T15:33:28.323Z,74.79
2023-11-12T15:35:56.266Z,74.72
2023-11-12T15:38:24.855Z,74.74
2023-11-12T15:40:55.174Z,74.68
2023-11-12T15:43:23.417Z,74.58
2023-11-12T15:45:51.479Z,74.53
2023-11-12T15:48:19.797Z,74.66
2023-11-12T15:50:49.790Z,74.67
2023-11-12T15:53:21.787Z,74.59
2023-11-12T15:55:51.083Z,75.04
2023-11-12T15:58:20.536Z,75.22
2023-11-12T16:00:48.991Z,75.17
2023-11-12T16:03:19.018Z,75.45
2023-11-12T16:05:47.942Z,75.41
2023-11-12T16:08:17.863Z,75.76
2023-11-12T16:10:45.917Z,75.87
2023-11-12T16:13:14.614Z,75.75
2023-11-12T16:15:43.369Z,75.95
2023-11-12T16:18:13.125Z,76.05
2023-11-12T16:20:41.463Z,75.90
2023-11-12T16:23:09.906Z,75.90
2023-11-12T16:25:39.742Z,76.14
2023-11-12T16:28:08.156Z,76.28
2023-11-12T16:30:36.216Z,76.10
2023-11-12T16:33:05.517Z,76.47
2023-11-12T16:35:34.261Z,76.67
2023-11-12T16:38:05.525Z,77.40
2023-11-12T16:40:35.154Z,77.48
2023-11-12T16:43:05.139Z,77.71
2023-11-12T16:45:36.174Z,78.30
2023-11-12T16:48:04.954Z,78.63
2023-11-12T16:50:34.145Z,78.82
2023-11-12T16:53:04.088Z,79.47
2023-11-12T16:55:32.312Z,79.74
2023-11-12T16:58:00.877Z,80.11
2023-11-12T17:00:32.277Z,80.35
2023-11-12T17:03:01.293Z,80.70
2023-11-12T17:05:29.533Z,80.83
2023-11-12T17:07:59.053Z,80.76
2023-11-12T17:10:28.158Z,80.89
2023-11-12T17:12:56.873Z,81.26
2023-11-12T17:15:25.915Z,81.94
2023-11-12T17:17:56.091Z,81.73
2023-11-12T17:20:25.075Z,82.26
2023-11-12T17:22:53.621Z,82.18
2023-11-12T17:25:21.630Z,82.37
2023-11-12T17:27:51.529Z,82.58
2023-11-12T17:30:21.265Z,83.17
2023-11-12T17:32:49.629Z,83.34
2023-11-12T17:35:20.088Z,83.70
2023-11-12T17:37:48.719Z,83.56
2023-11-12T17:40:17.754Z,84.02
2023-11-12T17:42:46.230Z,83.65
2023-11-12T17:45:15.367Z,83.54
2023-11-12T17:47:43.931Z,83.42
2023-11-12T17:50:12.341Z,83.78
2023-11-12T17:52:42.126Z,83.58
2023-11-12T17:55:13.459Z,84.31
2023-11-12T17:57:44.535Z,83.65
2023-11-12T18:00:14.126Z,84.49
2023-11-12T18:02:43.088Z,84.88
2023-11-12T18:05:11.462Z,84.68
2023-11-12T18:07:41.791Z,84.67
2023-11-12T18:10:14.167Z,84.78
2023-11-12T18:12:45.552Z,85.02
2023-11-12T18:15:15.442Z,85.01
2023-11-12T18:17:44.824Z,84.37
2023-11-12T18:20:13.455Z,84.15
2023-11-12T18:22:42.960Z,84.31
2023-11-12T18:25:12.932Z,84.72
2023-11-12T18:27:43.047Z,85.07
2023-11-12T18:30:11.770Z,85.84
2023-11-12T18:32:40.589Z,85.67
2023-11-12T18:35:09.426Z,86.01
2023-11-12T18:37:37.876Z,86.29
2023-11-12T18:40:10.333Z,86.53
2023-11-12T18:42:40.366Z,86.70
2023-11-12T18:45:10.536Z,86.46
2023-11-12T18:47:39.094Z,86.39
2023-11-12T18:50:10.043Z,86.73
2023-11-12T18:52:40.942Z,86.53
2023-11-12T18:55:15.234Z,86.83
2023-11-12T18:57:46.593Z,87.13
2023-11-12T19:00:15.410Z,87.62
2023-11-12T19:02:43.958Z,87.24
2023-11-12T19:05:12.255Z,87.21
2023-11-12T19:07:45.013Z,87.45
2023-11-12T19:10:14.865Z,87.78
2023-11-12T19:12:45.252Z,88.09
2023-11-12T19:15:15.749Z,88.43
2023-11-12T19:17:46.453Z,89.79
2023-11-12T19:20:15.666Z,90.05
2023-11-12T19:22:45.520Z,90.02
2023-11-12T19:25:16.132Z,89.49
2023-11-12T19:27:45.987Z,88.52
2023-11-12T19:30:17.047Z,88.69
2023-11-12T19:32:48.318Z,88.73
2023-11-12T19:35:17.007Z,88.82
2023-11-12T19:37:47.987Z,89.01
2023-11-12T19:40:19.330Z,89.98
2023-11-12T19:42:50.355Z,90.42
2023-11-12T19:45:21.285Z,91.11
2023-11-12T19:47:53.455Z,91.44
2023-11-12T19:50:22.871Z,90.88
2023-11-12T19:52:51.422Z,90.41
2023-11-12T19:55:20.929Z,90.68
2023-11-12T19:57:54.469Z,91.58
2023-11-12T20:00:27.230Z,91.40
2023-11-12T20:02:56.000Z,91.14
2023-11-12T20:05:26.507Z,91.06
2023-11-12T20:07:55.778Z,91.73
2023-11-12T20:10:24.749Z,91.85
2023-11-12T20:12:53.033Z,91.91
2023-11-12T20:15:22.355Z,92.42
2023-11-12T20:17:53.515Z,92.38
2023-11-12T20:20:22.114Z,92.51
2023-11-12T20:22:50.705Z,92.46
2023-11-12T20:25:25.266Z,92.26
2023-11-12T20:27:54.275Z,91.76
2023-11-12T20:30:23.004Z,91.93
2023-11-12T20:32:51.576Z,92.16
2023-11-12T20:35:21.568Z,92.54
2023-11-12T20:37:50.553Z,92.57
2023-11-12T20:40:19.938Z,92.74
2023-11-12T20:42:51.286Z,93.03
2023-11-12T20:45:20.421Z,93.28
2023-11-12T20:47:53.540Z,93.08
2023-11-12T20:50:24.008Z,93.07
2023-11-12T20:52:53.245Z,93.04
2023-11-12T20:55:22.961Z,93.48
2023-11-12T20:57:53.882Z,93.33
2023-11-12T21:00:23.743Z,93.27
2023-11-12T21:02:53.246Z,93.40
2023-11-12T21:05:22.062Z,93.68
2023-11-12T21:07:52.127Z,93.57
2023-11-12T21:10:24.104Z,92.93
2023-11-12T21:12:52.968Z,93.02
2023-11-12T21:15:21.027Z,92.37
2023-11-12T21:17:49.377Z,92.79
2023-11-12T21:20:18.516Z,93.13
2023-11-12T21:22:46.920Z,93.62
2023-11-12T21:25:21.089Z,93.36
2023-11-12T21:27:49.913Z,93.04
2023-11-12T21:30:26.169Z,92.88
2023-11-12T21:32:58.568Z,92.19
2023-11-12T21:35:28.097Z,92.10
2023-11-12T21:37:58.430Z,92.34
2023-11-12T21:40:27.986Z,92.53
2023-11-12T21:42:57.204Z,92.28
2023-11-12T21:45:29.388Z,92.08
2023-11-12T21:47:57.974Z,91.67
2023-11-12T21:50:27.257Z,91.43
2023-11-12T21:52:58.578Z,90.82
2023-11-12T21:55:33.108Z,91.14
2023-11-12T21:58:02.233Z,91.08
2023-11-12T22:00:30.225Z,90.97
2023-11-12T22:03:00.170Z,91.09
2023-11-12T22:05:29.175Z,90.94
2023-11-12T22:07:57.722Z,90.68
2023-11-12T22:10:26.032Z,91.14
2023-11-12T22:12:56.883Z,91.44
2023-11-12T22:15:24.971Z,91.12
2023-11-12T22:17:53.744Z,91.27
2023-11-12T22:20:22.098Z,91.14
2023-11-12T22:22:51.833Z,90.93
2023-11-12T22:25:20.117Z,90.89
2023-11-12T22:27:49.028Z,90.76
2023-11-12T22:30:19.128Z,90.97
2023-11-12T22:32:49.889Z,90.45
2023-11-12T22:35:18.866Z,90.25
2023-11-12T22:37:48.604Z,89.88
2023-11-12T22:40:18.934Z,89.64
2023-11-12T22:42:47.845Z,89.34
2023-11-12T22:45:16.812Z,89.16
2023-11-12T22:47:48.312Z,88.31
2023-11-12T22:50:18.588Z,88.41
2023-11-12T22:52:47.099Z,87.79
2023-11-12T22:55:15.324Z,87.92
2023-11-12T22:57:45.239Z,87.94
2023-11-12T23:02:58.865Z,87.48
2023-11-12T23:05:26.904Z,87.36
2023-11-12T23:07:55.225Z,87.96
2023-11-12T23:10:23.473Z,88.01
2023-11-12T23:12:51.767Z,87.76
2023-11-12T23:15:20.824Z,87.35
2023-11-12T23:17:49.174Z,87.12
2023-11-12T23:20:19.155Z,87.06
2023-11-12T23:22:48.165Z,86.91
2023-11-12T23:25:17.143Z,86.90
2023-11-12T23:27:45.743Z,86.69
2023-11-12T23:30:14.781Z,86.76
2023-11-12T23:32:44.417Z,86.75
2023-11-12T23:35:12.923Z,86.55
2023-11-12T23:37:44.774Z,86.59
2023-11-12T23:40:15.809Z,87.61
2023-11-12T23:42:44.328Z,87.44
2023-11-12T23:45:13.308Z,86.98
2023-11-12T23:47:42.059Z,87.63
2023-11-12T23:50:11.053Z,87.40
2023-11-12T23:52:39.690Z,87.59
2023-11-12T23:55:10.510Z,87.24
2023-11-12T23:57:39.577Z,87.21
